Biscayne National Park, FL

12:44 PM EST on November 24, 2014 (GMT -0500)
Bali at The Isles at Oasis | Change Station
CLOSE
Current Station
Personal Weather Station
Location: Homestead, FL
Elevation: 10 ft
Nearby Weather Stations

Elev 10 ft 25.47 °N, 80.42 °W | Updated 5 seconds ago

Clear
Clear
85.8 °F
Feels Like 96 °F
N
6.0
Wind Variable Wind from SSE
Gusts 10.0 mph

Today
High -- | Low -- °F
--% Chance of Precip.
Yesterday
High -- | Low -- °F
Precip. -- in
6:45 AM 5:31 PM
Waxing Crescent, 6% visible
Pressure 30.01 in
Visibility 10.0 miles
Clouds Few 2400 ft
Heat Index 96 °F
Dew Point 76 °F
Humidity 73%
Rainfall 0.00 in
Snow Depth Not available.
UV 7 out of 12
Pollen 3.70 out of 12
Air Quality Not available.
Flu Activity Not available.
METAR KHST 241658Z AUTO 16007KT 10SM FEW024 30/24 A3000 RMK AO2 SLP162 T03010236

More Conditions Fewer Conditions

Pressure 30.01 in
Visibility 10.0 miles
Clouds Few 2400 ft
Heat Index 96 °F
Dew Point 76 °F
Humidity 73%
Rainfall 0.00 in
Snow Depth Not available.
UV 7 out of 12
Pollen 3.70 out of 12
Air Quality Not available.
Flu Activity Not available.
METAR KHST 241658Z AUTO 16007KT 10SM FEW024 30/24 A3000 RMK AO2 SLP162 T03010236

More Conditions Fewer Conditions

10-Day Weather Forecast

Almanac

Astronomy

Nov. 24, 2014 Rise Set
Actual Time
Civil Twilight
Nautical Twilight
Astronomical Twilight
Moon
Length of Visible Light
Length of Day
Tomorrow will be .
, % of the Moon is Illuminated

Today's Extremes

State Highs State Lows

Community

WunderPhotos

Upload Photos

1,773,379 photos uploaded!

WunderBlogs® & News

Nearby

Air Quality

  Air Quality AQ Index Pollutant
Not available.

Snow Depth

Station Depth Elevation

Earthquake Activity

City Distance Mag. Time & Date
Minimum magnitude displayed is 2.5.

Coastal Water Temperatures

Place Temperature

Nearby Weather Stations